sensor_id;sensor_type;location;lat;lon;timestamp;P1;durP1;ratioP1;P2;durP2;ratioP2
42338;SDS011;27993;45.392;10.918;2023-02-28T00:02:11;7.75;;;4.35;;
42338;SDS011;27993;45.392;10.918;2023-02-28T00:04:42;6.10;;;4.03;;
42338;SDS011;27993;45.392;10.918;2023-02-28T00:07:12;7.78;;;3.22;;
42338;SDS011;27993;45.392;10.918;2023-02-28T00:09:43;6.95;;;4.25;;
42338;SDS011;27993;45.392;10.918;2023-02-28T00:12:13;14.38;;;5.40;;
42338;SDS011;27993;45.392;10.918;2023-02-28T00:14:44;9.13;;;5.25;;
42338;SDS011;27993;45.392;10.918;2023-02-28T00:17:14;8.93;;;4.22;;
42338;SDS011;27993;45.392;10.918;2023-02-28T00:19:48;10.80;;;4.55;;
42338;SDS011;27993;45.392;10.918;2023-02-28T00:22:20;8.07;;;4.68;;
42338;SDS011;27993;45.392;10.918;2023-02-28T00:24:51;7.82;;;4.28;;
42338;SDS011;27993;45.392;10.918;2023-02-28T00:27:21;8.23;;;5.05;;
42338;SDS011;27993;45.392;10.918;2023-02-28T00:29:52;4.95;;;3.42;;
42338;SDS011;27993;45.392;10.918;2023-02-28T00:32:24;8.95;;;4.07;;
42338;SDS011;27993;45.392;10.918;2023-02-28T00:34:54;4.75;;;3.15;;
42338;SDS011;27993;45.392;10.918;2023-02-28T00:37:25;5.55;;;3.05;;
42338;SDS011;27993;45.392;10.918;2023-02-28T00:39:56;10.35;;;4.30;;
42338;SDS011;27993;45.392;10.918;2023-02-28T00:42:26;9.10;;;3.72;;
42338;SDS011;27993;45.392;10.918;2023-02-28T00:44:57;7.65;;;3.60;;
42338;SDS011;27993;45.392;10.918;2023-02-28T00:47:28;6.47;;;1.20;;
42338;SDS011;27993;45.392;10.918;2023-02-28T00:49:58;7.53;;;3.12;;
42338;SDS011;27993;45.392;10.918;2023-02-28T00:52:29;7.40;;;4.20;;
42338;SDS011;27993;45.392;10.918;2023-02-28T00:55:00;8.02;;;4.12;;
42338;SDS011;27993;45.392;10.918;2023-02-28T00:57:30;15.73;;;4.37;;
42338;SDS011;27993;45.392;10.918;2023-02-28T01:00:01;5.70;;;2.87;;
42338;SDS011;27993;45.392;10.918;2023-02-28T01:02:32;9.02;;;3.58;;
42338;SDS011;27993;45.392;10.918;2023-02-28T01:05:02;6.70;;;3.62;;
42338;SDS011;27993;45.392;10.918;2023-02-28T01:07:33;8.13;;;4.07;;
42338;SDS011;27993;45.392;10.918;2023-02-28T01:10:04;6.28;;;3.30;;
42338;SDS011;27993;45.392;10.918;2023-02-28T01:12:34;4.65;;;2.20;;
42338;SDS011;27993;45.392;10.918;2023-02-28T01:15:05;5.37;;;3.08;;
42338;SDS011;27993;45.392;10.918;2023-02-28T01:17:36;8.20;;;3.33;;
42338;SDS011;27993;45.392;10.918;2023-02-28T01:20:07;6.35;;;3.40;;
42338;SDS011;27993;45.392;10.918;2023-02-28T01:22:38;7.50;;;3.90;;
42338;SDS011;27993;45.392;10.918;2023-02-28T01:25:08;8.68;;;3.30;;
42338;SDS011;27993;45.392;10.918;2023-02-28T01:27:39;8.95;;;4.15;;
42338;SDS011;27993;45.392;10.918;2023-02-28T01:30:10;7.30;;;3.95;;
42338;SDS011;27993;45.392;10.918;2023-02-28T01:32:41;8.43;;;4.80;;
42338;SDS011;27993;45.392;10.918;2023-02-28T01:35:11;11.98;;;3.85;;
42338;SDS011;27993;45.392;10.918;2023-02-28T01:37:42;7.10;;;3.78;;
42338;SDS011;27993;45.392;10.918;2023-02-28T01:40:12;7.85;;;3.65;;
42338;SDS011;27993;45.392;10.918;2023-02-28T01:42:44;9.18;;;4.55;;
42338;SDS011;27993;45.392;10.918;2023-02-28T01:45:18;8.15;;;3.53;;
42338;SDS011;27993;45.392;10.918;2023-02-28T01:47:50;11.48;;;5.00;;
42338;SDS011;27993;45.392;10.918;2023-02-28T01:50:25;6.50;;;4.10;;
42338;SDS011;27993;45.392;10.918;2023-02-28T01:53:00;5.85;;;3.75;;
42338;SDS011;27993;45.392;10.918;2023-02-28T01:55:34;6.25;;;3.62;;
42338;SDS011;27993;45.392;10.918;2023-02-28T01:58:06;6.60;;;3.42;;
42338;SDS011;27993;45.392;10.918;2023-02-28T02:00:39;8.85;;;3.72;;
42338;SDS011;27993;45.392;10.918;2023-02-28T02:03:13;6.97;;;3.92;;
42338;SDS011;27993;45.392;10.918;2023-02-28T02:05:48;6.72;;;3.97;;
42338;SDS011;27993;45.392;10.918;2023-02-28T02:08:21;6.72;;;4.30;;
42338;SDS011;27993;45.392;10.918;2023-02-28T02:10:55;7.45;;;3.97;;
42338;SDS011;27993;45.392;10.918;2023-02-28T02:13:33;8.75;;;4.05;;
42338;SDS011;27993;45.392;10.918;2023-02-28T02:16:20;7.22;;;4.65;;
42338;SDS011;27993;45.392;10.918;2023-02-28T02:19:10;8.48;;;3.55;;
42338;SDS011;27993;45.392;10.918;2023-02-28T02:24:48;5.87;;;3.50;;
42338;SDS011;27993;45.392;10.918;2023-02-28T02:41:56;7.47;;;3.50;;
42338;SDS011;27993;45.392;10.918;2023-02-28T02:47:13;9.57;;;3.47;;
42338;SDS011;27993;45.392;10.918;2023-02-28T02:49:51;8.65;;;4.05;;
42338;SDS011;27993;45.392;10.918;2023-02-28T02:52:28;6.05;;;3.47;;
42338;SDS011;27993;45.392;10.918;2023-02-28T02:55:05;6.45;;;3.33;;
42338;SDS011;27993;45.392;10.918;2023-02-28T02:57:45;8.02;;;3.50;;
42338;SDS011;27993;45.392;10.918;2023-02-28T03:00:23;9.50;;;3.10;;
42338;SDS011;27993;45.392;10.918;2023-02-28T03:03:00;8.73;;;3.25;;
42338;SDS011;27993;45.392;10.918;2023-02-28T03:05:42;9.35;;;3.12;;
42338;SDS011;27993;45.392;10.918;2023-02-28T03:08:16;6.85;;;3.35;;
42338;SDS011;27993;45.392;10.918;2023-02-28T03:10:50;4.82;;;3.37;;
42338;SDS011;27993;45.392;10.918;2023-02-28T03:19:31;7.30;;;3.47;;
42338;SDS011;27993;45.392;10.918;2023-02-28T03:25:09;5.37;;;3.00;;
42338;SDS011;27993;45.392;10.918;2023-02-28T03:30:35;4.68;;;2.55;;
42338;SDS011;27993;45.392;10.918;2023-02-28T03:33:25;4.78;;;2.75;;
42338;SDS011;27993;45.392;10.918;2023-02-28T03:36:04;6.30;;;3.10;;
42338;SDS011;27993;45.392;10.918;2023-02-28T03:38:44;6.68;;;3.92;;
42338;SDS011;27993;45.392;10.918;2023-02-28T03:41:43;10.35;;;3.12;;
42338;SDS011;27993;45.392;10.918;2023-02-28T03:44:21;4.97;;;2.62;;
42338;SDS011;27993;45.392;10.918;2023-02-28T03:47:17;5.28;;;2.90;;
42338;SDS011;27993;45.392;10.918;2023-02-28T03:52:38;8.05;;;3.72;;
42338;SDS011;27993;45.392;10.918;2023-02-28T03:55:16;6.90;;;4.25;;
42338;SDS011;27993;45.392;10.918;2023-02-28T04:00:26;5.37;;;2.58;;
42338;SDS011;27993;45.392;10.918;2023-02-28T04:03:01;11.52;;;3.90;;
42338;SDS011;27993;45.392;10.918;2023-02-28T04:05:33;5.00;;;3.22;;
42338;SDS011;27993;45.392;10.918;2023-02-28T04:08:20;6.53;;;3.50;;
42338;SDS011;27993;45.392;10.918;2023-02-28T04:10:54;8.40;;;4.22;;
42338;SDS011;27993;45.392;10.918;2023-02-28T04:13:28;6.72;;;3.75;;
42338;SDS011;27993;45.392;10.918;2023-02-28T04:15:58;6.28;;;3.20;;
42338;SDS011;27993;45.392;10.918;2023-02-28T04:18:29;5.57;;;3.65;;
42338;SDS011;27993;45.392;10.918;2023-02-28T04:21:00;5.00;;;2.53;;
42338;SDS011;27993;45.392;10.918;2023-02-28T04:23:30;7.22;;;3.80;;
42338;SDS011;27993;45.392;10.918;2023-02-28T04:26:02;4.05;;;2.87;;
42338;SDS011;27993;45.392;10.918;2023-02-28T04:28:33;5.40;;;3.60;;
42338;SDS011;27993;45.392;10.918;2023-02-28T04:31:04;14.38;;;4.32;;
42338;SDS011;27993;45.392;10.918;2023-02-28T04:33:35;8.55;;;4.15;;
42338;SDS011;27993;45.392;10.918;2023-02-28T04:36:07;4.90;;;2.80;;
42338;SDS011;27993;45.392;10.918;2023-02-28T04:41:09;9.27;;;3.25;;
42338;SDS011;27993;45.392;10.918;2023-02-28T04:43:39;7.45;;;3.62;;
42338;SDS011;27993;45.392;10.918;2023-02-28T04:46:10;7.20;;;4.43;;
42338;SDS011;27993;45.392;10.918;2023-02-28T04:48:41;11.60;;;4.00;;
42338;SDS011;27993;45.392;10.918;2023-02-28T04:51:14;11.40;;;3.50;;
42338;SDS011;27993;45.392;10.918;2023-02-28T04:53:47;6.07;;;3.83;;
42338;SDS011;27993;45.392;10.918;2023-02-28T04:56:18;7.68;;;4.12;;
42338;SDS011;27993;45.392;10.918;2023-02-28T04:58:49;7.30;;;3.30;;
42338;SDS011;27993;45.392;10.918;2023-02-28T05:01:23;5.75;;;3.62;;
42338;SDS011;27993;45.392;10.918;2023-02-28T05:03:59;6.15;;;3.95;;
42338;SDS011;27993;45.392;10.918;2023-02-28T05:06:32;4.80;;;3.08;;
42338;SDS011;27993;45.392;10.918;2023-02-28T05:09:03;9.40;;;4.10;;
42338;SDS011;27993;45.392;10.918;2023-02-28T05:11:34;7.78;;;3.45;;
42338;SDS011;27993;45.392;10.918;2023-02-28T05:14:06;9.65;;;3.47;;
42338;SDS011;27993;45.392;10.918;2023-02-28T05:16:42;7.40;;;3.55;;
42338;SDS011;27993;45.392;10.918;2023-02-28T05:19:13;8.15;;;4.28;;
42338;SDS011;27993;45.392;10.918;2023-02-28T05:21:50;6.15;;;2.85;;
42338;SDS011;27993;45.392;10.918;2023-02-28T05:24:22;5.18;;;3.15;;
42338;SDS011;27993;45.392;10.918;2023-02-28T05:26:53;12.00;;;2.83;;
42338;SDS011;27993;45.392;10.918;2023-02-28T05:29:24;5.82;;;2.65;;
42338;SDS011;27993;45.392;10.918;2023-02-28T05:31:55;7.00;;;4.35;;
42338;SDS011;27993;45.392;10.918;2023-02-28T05:34:25;9.05;;;3.87;;
42338;SDS011;27993;45.392;10.918;2023-02-28T05:36:56;12.63;;;4.75;;
42338;SDS011;27993;45.392;10.918;2023-02-28T05:39:26;8.20;;;4.05;;
42338;SDS011;27993;45.392;10.918;2023-02-28T05:41:57;8.43;;;3.83;;
42338;SDS011;27993;45.392;10.918;2023-02-28T05:44:27;11.27;;;6.95;;
42338;SDS011;27993;45.392;10.918;2023-02-28T05:46:58;8.27;;;4.78;;
42338;SDS011;27993;45.392;10.918;2023-02-28T05:49:29;24.83;;;4.65;;
42338;SDS011;27993;45.392;10.918;2023-02-28T05:51:59;6.28;;;3.78;;
42338;SDS011;27993;45.392;10.918;2023-02-28T05:54:30;8.32;;;3.95;;
42338;SDS011;27993;45.392;10.918;2023-02-28T05:57:00;7.28;;;4.25;;
42338;SDS011;27993;45.392;10.918;2023-02-28T05:59:31;6.70;;;4.15;;
42338;SDS011;27993;45.392;10.918;2023-02-28T06:02:02;8.52;;;4.22;;
42338;SDS011;27993;45.392;10.918;2023-02-28T06:04:33;4.72;;;3.17;;
42338;SDS011;27993;45.392;10.918;2023-02-28T06:07:03;8.57;;;4.70;;
42338;SDS011;27993;45.392;10.918;2023-02-28T06:09:34;10.18;;;4.82;;
42338;SDS011;27993;45.392;10.918;2023-02-28T06:12:06;7.57;;;4.37;;
42338;SDS011;27993;45.392;10.918;2023-02-28T06:14:37;6.25;;;3.20;;
42338;SDS011;27993;45.392;10.918;2023-02-28T06:17:08;8.43;;;3.45;;
42338;SDS011;27993;45.392;10.918;2023-02-28T06:19:39;8.20;;;3.67;;
42338;SDS011;27993;45.392;10.918;2023-02-28T06:22:11;12.52;;;4.80;;
42338;SDS011;27993;45.392;10.918;2023-02-28T06:24:41;6.75;;;4.22;;
42338;SDS011;27993;45.392;10.918;2023-02-28T06:27:12;9.43;;;4.22;;
42338;SDS011;27993;45.392;10.918;2023-02-28T06:29:42;8.02;;;4.35;;
42338;SDS011;27993;45.392;10.918;2023-02-28T06:32:13;7.50;;;3.92;;
42338;SDS011;27993;45.392;10.918;2023-02-28T06:34:44;9.98;;;4.80;;
42338;SDS011;27993;45.392;10.918;2023-02-28T06:37:14;7.35;;;4.45;;
42338;SDS011;27993;45.392;10.918;2023-02-28T06:39:45;6.28;;;4.25;;
42338;SDS011;27993;45.392;10.918;2023-02-28T06:42:16;11.87;;;4.90;;
42338;SDS011;27993;45.392;10.918;2023-02-28T06:44:46;7.07;;;4.33;;
42338;SDS011;27993;45.392;10.918;2023-02-28T06:47:17;9.33;;;4.40;;
42338;SDS011;27993;45.392;10.918;2023-02-28T06:49:48;9.97;;;4.97;;
42338;SDS011;27993;45.392;10.918;2023-02-28T06:52:18;17.27;;;5.23;;
42338;SDS011;27993;45.392;10.918;2023-02-28T06:54:49;9.97;;;5.33;;
42338;SDS011;27993;45.392;10.918;2023-02-28T06:57:30;12.00;;;6.45;;
42338;SDS011;27993;45.392;10.918;2023-02-28T07:00:04;15.35;;;6.30;;
42338;SDS011;27993;45.392;10.918;2023-02-28T07:02:37;14.23;;;5.00;;
42338;SDS011;27993;45.392;10.918;2023-02-28T07:05:08;7.97;;;5.20;;
42338;SDS011;27993;45.392;10.918;2023-02-28T07:07:39;6.95;;;4.50;;
42338;SDS011;27993;45.392;10.918;2023-02-28T07:10:13;14.07;;;5.87;;
42338;SDS011;27993;45.392;10.918;2023-02-28T07:12:46;10.15;;;5.20;;
42338;SDS011;27993;45.392;10.918;2023-02-28T07:15:17;8.00;;;4.70;;
42338;SDS011;27993;45.392;10.918;2023-02-28T07:17:47;10.07;;;5.17;;
42338;SDS011;27993;45.392;10.918;2023-02-28T07:20:18;7.47;;;4.13;;
42338;SDS011;27993;45.392;10.918;2023-02-28T07:22:49;6.23;;;4.33;;
42338;SDS011;27993;45.392;10.918;2023-02-28T07:25:26;7.03;;;4.32;;
42338;SDS011;27993;45.392;10.918;2023-02-28T07:27:57;8.05;;;4.87;;
42338;SDS011;27993;45.392;10.918;2023-02-28T07:30:29;10.80;;;4.80;;
42338;SDS011;27993;45.392;10.918;2023-02-28T07:32:59;11.37;;;5.90;;
42338;SDS011;27993;45.392;10.918;2023-02-28T07:35:30;9.30;;;5.87;;
42338;SDS011;27993;45.392;10.918;2023-02-28T07:38:00;9.02;;;5.40;;
42338;SDS011;27993;45.392;10.918;2023-02-28T07:40:33;9.02;;;5.50;;
42338;SDS011;27993;45.392;10.918;2023-02-28T07:43:04;9.27;;;5.45;;
42338;SDS011;27993;45.392;10.918;2023-02-28T07:45:35;11.00;;;5.40;;
42338;SDS011;27993;45.392;10.918;2023-02-28T07:48:05;11.63;;;7.07;;
42338;SDS011;27993;45.392;10.918;2023-02-28T07:50:36;6.97;;;4.90;;
42338;SDS011;27993;45.392;10.918;2023-02-28T07:53:07;10.45;;;5.40;;
42338;SDS011;27993;45.392;10.918;2023-02-28T07:55:38;10.97;;;6.07;;
42338;SDS011;27993;45.392;10.918;2023-02-28T07:58:08;11.03;;;5.10;;
42338;SDS011;27993;45.392;10.918;2023-02-28T08:00:39;4.77;;;3.33;;
42338;SDS011;27993;45.392;10.918;2023-02-28T08:03:12;9.20;;;5.23;;
42338;SDS011;27993;45.392;10.918;2023-02-28T08:05:43;8.68;;;5.35;;
42338;SDS011;27993;45.392;10.918;2023-02-28T08:08:14;8.53;;;5.23;;
42338;SDS011;27993;45.392;10.918;2023-02-28T08:10:46;9.98;;;5.07;;
42338;SDS011;27993;45.392;10.918;2023-02-28T08:13:17;8.13;;;4.87;;
42338;SDS011;27993;45.392;10.918;2023-02-28T08:15:48;10.05;;;5.72;;
42338;SDS011;27993;45.392;10.918;2023-02-28T08:18:18;13.47;;;5.77;;
42338;SDS011;27993;45.392;10.918;2023-02-28T08:20:49;10.90;;;5.33;;
42338;SDS011;27993;45.392;10.918;2023-02-28T08:23:19;8.68;;;5.00;;
42338;SDS011;27993;45.392;10.918;2023-02-28T08:25:53;6.27;;;4.63;;
42338;SDS011;27993;45.392;10.918;2023-02-28T08:28:25;8.20;;;5.05;;
42338;SDS011;27993;45.392;10.918;2023-02-28T08:30:55;7.53;;;5.25;;
42338;SDS011;27993;45.392;10.918;2023-02-28T08:33:26;7.82;;;5.80;;
42338;SDS011;27993;45.392;10.918;2023-02-28T08:35:58;9.20;;;5.57;;
42338;SDS011;27993;45.392;10.918;2023-02-28T08:38:28;9.00;;;5.78;;
42338;SDS011;27993;45.392;10.918;2023-02-28T08:40:59;8.60;;;5.53;;
42338;SDS011;27993;45.392;10.918;2023-02-28T08:43:32;8.55;;;5.10;;
42338;SDS011;27993;45.392;10.918;2023-02-28T08:46:04;10.35;;;5.50;;
42338;SDS011;27993;45.392;10.918;2023-02-28T08:48:35;11.18;;;6.07;;
42338;SDS011;27993;45.392;10.918;2023-02-28T08:51:08;9.18;;;4.50;;
42338;SDS011;27993;45.392;10.918;2023-02-28T08:53:41;7.53;;;5.53;;
42338;SDS011;27993;45.392;10.918;2023-02-28T08:56:12;7.17;;;5.17;;
42338;SDS011;27993;45.392;10.918;2023-02-28T08:58:46;11.57;;;5.03;;
42338;SDS011;27993;45.392;10.918;2023-02-28T09:01:20;10.88;;;5.47;;
42338;SDS011;27993;45.392;10.918;2023-02-28T09:03:55;9.93;;;5.32;;
42338;SDS011;27993;45.392;10.918;2023-02-28T09:06:26;8.27;;;5.57;;
42338;SDS011;27993;45.392;10.918;2023-02-28T09:08:57;11.18;;;4.97;;
42338;SDS011;27993;45.392;10.918;2023-02-28T09:11:29;7.05;;;5.18;;
42338;SDS011;27993;45.392;10.918;2023-02-28T09:14:00;8.88;;;6.03;;
42338;SDS011;27993;45.392;10.918;2023-02-28T09:16:33;9.30;;;5.87;;
42338;SDS011;27993;45.392;10.918;2023-02-28T09:19:04;14.73;;;6.32;;
42338;SDS011;27993;45.392;10.918;2023-02-28T09:21:34;8.27;;;4.97;;
42338;SDS011;27993;45.392;10.918;2023-02-28T09:24:06;8.23;;;5.28;;
42338;SDS011;27993;45.392;10.918;2023-02-28T09:26:37;9.95;;;6.00;;
42338;SDS011;27993;45.392;10.918;2023-02-28T09:29:08;11.27;;;5.80;;
42338;SDS011;27993;45.392;10.918;2023-02-28T09:31:39;8.95;;;4.68;;
42338;SDS011;27993;45.392;10.918;2023-02-28T09:34:10;7.87;;;5.97;;
42338;SDS011;27993;45.392;10.918;2023-02-28T09:36:40;9.45;;;6.18;;
42338;SDS011;27993;45.392;10.918;2023-02-28T09:39:11;7.62;;;5.10;;
42338;SDS011;27993;45.392;10.918;2023-02-28T09:41:43;13.70;;;5.65;;
42338;SDS011;27993;45.392;10.918;2023-02-28T09:47:21;7.85;;;4.95;;
42338;SDS011;27993;45.392;10.918;2023-02-28T09:52:56;7.65;;;5.43;;
42338;SDS011;27993;45.392;10.918;2023-02-28T10:01:03;11.90;;;5.00;;
42338;SDS011;27993;45.392;10.918;2023-02-28T10:03:49;16.02;;;5.68;;
42338;SDS011;27993;45.392;10.918;2023-02-28T10:06:33;6.78;;;4.90;;
42338;SDS011;27993;45.392;10.918;2023-02-28T10:09:11;4.80;;;3.22;;
42338;SDS011;27993;45.392;10.918;2023-02-28T10:11:47;7.00;;;4.85;;
42338;SDS011;27993;45.392;10.918;2023-02-28T10:14:24;11.82;;;4.60;;
42338;SDS011;27993;45.392;10.918;2023-02-28T10:16:59;11.85;;;5.05;;
42338;SDS011;27993;45.392;10.918;2023-02-28T10:19:38;6.70;;;5.00;;
42338;SDS011;27993;45.392;10.918;2023-02-28T10:22:17;7.90;;;4.90;;
42338;SDS011;27993;45.392;10.918;2023-02-28T10:24:51;7.87;;;4.60;;
42338;SDS011;27993;45.392;10.918;2023-02-28T10:27:24;7.62;;;4.28;;
42338;SDS011;27993;45.392;10.918;2023-02-28T10:29:59;8.75;;;4.95;;
42338;SDS011;27993;45.392;10.918;2023-02-28T10:32:35;10.52;;;6.30;;
42338;SDS011;27993;45.392;10.918;2023-02-28T10:37:49;19.02;;;5.35;;
42338;SDS011;27993;45.392;10.918;2023-02-28T10:43:01;8.77;;;5.10;;
42338;SDS011;27993;45.392;10.918;2023-02-28T10:45:35;8.82;;;4.78;;
42338;SDS011;27993;45.392;10.918;2023-02-28T11:04:02;7.72;;;4.68;;
42338;SDS011;27993;45.392;10.918;2023-02-28T11:06:33;8.05;;;4.60;;
42338;SDS011;27993;45.392;10.918;2023-02-28T11:09:05;8.70;;;5.20;;
42338;SDS011;27993;45.392;10.918;2023-02-28T11:11:59;7.70;;;3.53;;
42338;SDS011;27993;45.392;10.918;2023-02-28T11:14:32;7.53;;;4.95;;
42338;SDS011;27993;45.392;10.918;2023-02-28T11:17:20;10.15;;;5.70;;
42338;SDS011;27993;45.392;10.918;2023-02-28T11:19:55;9.77;;;4.82;;
42338;SDS011;27993;45.392;10.918;2023-02-28T11:22:38;9.10;;;4.97;;
42338;SDS011;27993;45.392;10.918;2023-02-28T11:27:57;8.68;;;5.28;;
42338;SDS011;27993;45.392;10.918;2023-02-28T11:30:35;8.45;;;4.87;;
42338;SDS011;27993;45.392;10.918;2023-02-28T11:36:03;8.88;;;6.05;;
42338;SDS011;27993;45.392;10.918;2023-02-28T11:38:39;7.72;;;5.55;;
42338;SDS011;27993;45.392;10.918;2023-02-28T11:46:47;8.27;;;5.15;;
42338;SDS011;27993;45.392;10.918;2023-02-28T11:52:50;10.10;;;5.82;;
42338;SDS011;27993;45.392;10.918;2023-02-28T11:55:25;9.38;;;5.22;;
42338;SDS011;27993;45.392;10.918;2023-02-28T12:01:19;8.25;;;4.90;;
42338;SDS011;27993;45.392;10.918;2023-02-28T12:04:11;12.25;;;5.35;;
42338;SDS011;27993;45.392;10.918;2023-02-28T12:16:11;11.38;;;5.45;;
42338;SDS011;27993;45.392;10.918;2023-02-28T12:27:03;11.18;;;5.70;;
42338;SDS011;27993;45.392;10.918;2023-02-28T12:29:42;10.63;;;6.62;;
42338;SDS011;27993;45.392;10.918;2023-02-28T12:32:34;9.57;;;5.43;;
42338;SDS011;27993;45.392;10.918;2023-02-28T12:37:44;11.13;;;4.67;;
42338;SDS011;27993;45.392;10.918;2023-02-28T12:40:22;9.35;;;4.32;;
42338;SDS011;27993;45.392;10.918;2023-02-28T12:42:58;6.47;;;3.40;;
42338;SDS011;27993;45.392;10.918;2023-02-28T12:45:39;6.68;;;4.43;;
42338;SDS011;27993;45.392;10.918;2023-02-28T12:51:12;11.63;;;6.18;;
42338;SDS011;27993;45.392;10.918;2023-02-28T12:53:57;7.05;;;3.28;;
42338;SDS011;27993;45.392;10.918;2023-02-28T13:04:43;9.95;;;5.90;;
42338;SDS011;27993;45.392;10.918;2023-02-28T13:10:16;7.10;;;3.42;;
42338;SDS011;27993;45.392;10.918;2023-02-28T13:12:49;9.57;;;5.35;;
42338;SDS011;27993;45.392;10.918;2023-02-28T13:15:24;8.75;;;5.90;;
42338;SDS011;27993;45.392;10.918;2023-02-28T13:17:58;9.13;;;5.40;;
42338;SDS011;27993;45.392;10.918;2023-02-28T13:20:31;8.15;;;4.85;;
42338;SDS011;27993;45.392;10.918;2023-02-28T13:23:16;10.52;;;5.80;;
42338;SDS011;27993;45.392;10.918;2023-02-28T13:26:17;12.27;;;5.97;;
42338;SDS011;27993;45.392;10.918;2023-02-28T13:31:18;7.63;;;5.07;;
42338;SDS011;27993;45.392;10.918;2023-02-28T13:36:32;8.93;;;4.40;;
42338;SDS011;27993;45.392;10.918;2023-02-28T13:39:03;15.73;;;6.93;;
42338;SDS011;27993;45.392;10.918;2023-02-28T13:47:41;11.40;;;5.70;;
42338;SDS011;27993;45.392;10.918;2023-02-28T13:53:32;9.65;;;5.57;;
42338;SDS011;27993;45.392;10.918;2023-02-28T13:56:18;13.57;;;5.78;;
42338;SDS011;27993;45.392;10.918;2023-02-28T13:59:22;8.18;;;4.90;;
42338;SDS011;27993;45.392;10.918;2023-02-28T14:05:13;10.35;;;6.28;;
42338;SDS011;27993;45.392;10.918;2023-02-28T14:07:50;10.15;;;5.37;;
42338;SDS011;27993;45.392;10.918;2023-02-28T14:10:35;9.15;;;5.00;;
42338;SDS011;27993;45.392;10.918;2023-02-28T14:13:13;11.05;;;6.03;;
42338;SDS011;27993;45.392;10.918;2023-02-28T14:16:03;10.95;;;4.55;;
42338;SDS011;27993;45.392;10.918;2023-02-28T14:18:36;10.57;;;5.32;;
42338;SDS011;27993;45.392;10.918;2023-02-28T14:21:11;7.45;;;2.83;;
42338;SDS011;27993;45.392;10.918;2023-02-28T14:24:03;11.80;;;5.10;;
42338;SDS011;27993;45.392;10.918;2023-02-28T14:29:28;11.43;;;6.03;;
42338;SDS011;27993;45.392;10.918;2023-02-28T14:38:05;11.85;;;5.95;;
42338;SDS011;27993;45.392;10.918;2023-02-28T14:40:43;10.40;;;5.60;;
42338;SDS011;27993;45.392;10.918;2023-02-28T14:43:18;12.18;;;4.75;;
42338;SDS011;27993;45.392;10.918;2023-02-28T14:45:52;8.30;;;4.32;;
42338;SDS011;27993;45.392;10.918;2023-02-28T14:48:25;8.82;;;4.93;;
42338;SDS011;27993;45.392;10.918;2023-02-28T14:50:59;13.93;;;7.28;;
42338;SDS011;27993;45.392;10.918;2023-02-28T14:53:35;9.20;;;5.30;;
42338;SDS011;27993;45.392;10.918;2023-02-28T14:56:16;9.93;;;4.35;;
42338;SDS011;27993;45.392;10.918;2023-02-28T14:58:53;16.12;;;6.55;;
42338;SDS011;27993;45.392;10.918;2023-02-28T15:01:26;12.25;;;4.60;;
42338;SDS011;27993;45.392;10.918;2023-02-28T15:03:57;8.83;;;5.57;;
42338;SDS011;27993;45.392;10.918;2023-02-28T15:06:31;10.70;;;5.40;;
42338;SDS011;27993;45.392;10.918;2023-02-28T15:09:10;8.95;;;3.90;;
42338;SDS011;27993;45.392;10.918;2023-02-28T15:11:46;8.60;;;4.75;;
42338;SDS011;27993;45.392;10.918;2023-02-28T15:14:20;9.98;;;5.30;;
42338;SDS011;27993;45.392;10.918;2023-02-28T15:16:52;11.25;;;6.35;;
42338;SDS011;27993;45.392;10.918;2023-02-28T15:19:30;10.77;;;4.75;;
42338;SDS011;27993;45.392;10.918;2023-02-28T15:22:15;9.07;;;4.18;;
42338;SDS011;27993;45.392;10.918;2023-02-28T15:24:50;6.55;;;3.85;;
42338;SDS011;27993;45.392;10.918;2023-02-28T15:27:27;12.37;;;5.78;;
42338;SDS011;27993;45.392;10.918;2023-02-28T15:30:06;15.93;;;6.87;;
42338;SDS011;27993;45.392;10.918;2023-02-28T15:32:38;18.10;;;5.93;;
42338;SDS011;27993;45.392;10.918;2023-02-28T15:37:56;13.93;;;6.03;;
42338;SDS011;27993;45.392;10.918;2023-02-28T15:40:37;12.80;;;6.60;;
42338;SDS011;27993;45.392;10.918;2023-02-28T15:43:14;13.80;;;5.82;;
42338;SDS011;27993;45.392;10.918;2023-02-28T15:45:55;7.87;;;4.82;;
42338;SDS011;27993;45.392;10.918;2023-02-28T15:48:45;3.75;;;2.97;;
42338;SDS011;27993;45.392;10.918;2023-02-28T15:51:29;11.93;;;6.50;;
42338;SDS011;27993;45.392;10.918;2023-02-28T15:54:06;13.93;;;5.87;;
42338;SDS011;27993;45.392;10.918;2023-02-28T15:56:39;7.85;;;5.22;;
42338;SDS011;27993;45.392;10.918;2023-02-28T15:59:16;9.30;;;5.78;;
42338;SDS011;27993;45.392;10.918;2023-02-28T16:02:13;17.02;;;6.80;;
42338;SDS011;27993;45.392;10.918;2023-02-28T16:07:27;10.55;;;5.72;;
42338;SDS011;27993;45.392;10.918;2023-02-28T16:09:59;11.77;;;5.70;;
42338;SDS011;27993;45.392;10.918;2023-02-28T16:12:31;10.13;;;5.90;;
42338;SDS011;27993;45.392;10.918;2023-02-28T16:15:17;10.98;;;5.80;;
42338;SDS011;27993;45.392;10.918;2023-02-28T16:17:51;11.27;;;6.05;;
42338;SDS011;27993;45.392;10.918;2023-02-28T16:20:24;11.10;;;5.70;;
42338;SDS011;27993;45.392;10.918;2023-02-28T16:22:59;13.82;;;5.68;;
42338;SDS011;27993;45.392;10.918;2023-02-28T16:25:36;18.90;;;5.15;;
42338;SDS011;27993;45.392;10.918;2023-02-28T16:28:19;11.10;;;5.28;;
42338;SDS011;27993;45.392;10.918;2023-02-28T16:30:53;13.50;;;6.05;;
42338;SDS011;27993;45.392;10.918;2023-02-28T16:33:24;15.95;;;6.12;;
42338;SDS011;27993;45.392;10.918;2023-02-28T16:35:55;14.00;;;5.30;;
42338;SDS011;27993;45.392;10.918;2023-02-28T16:38:25;10.03;;;5.90;;
42338;SDS011;27993;45.392;10.918;2023-02-28T16:40:57;8.90;;;5.77;;
42338;SDS011;27993;45.392;10.918;2023-02-28T16:43:29;12.32;;;6.03;;
42338;SDS011;27993;45.392;10.918;2023-02-28T16:46:00;10.73;;;6.00;;
42338;SDS011;27993;45.392;10.918;2023-02-28T16:48:33;15.50;;;7.20;;
42338;SDS011;27993;45.392;10.918;2023-02-28T16:51:03;13.23;;;7.30;;
42338;SDS011;27993;45.392;10.918;2023-02-28T16:53:34;11.63;;;5.57;;
42338;SDS011;27993;45.392;10.918;2023-02-28T16:56:05;25.03;;;6.67;;
42338;SDS011;27993;45.392;10.918;2023-02-28T16:58:36;12.80;;;7.30;;
42338;SDS011;27993;45.392;10.918;2023-02-28T17:01:07;12.60;;;7.23;;
42338;SDS011;27993;45.392;10.918;2023-02-28T17:03:38;15.87;;;7.60;;
42338;SDS011;27993;45.392;10.918;2023-02-28T17:08:46;19.87;;;8.88;;
42338;SDS011;27993;45.392;10.918;2023-02-28T17:11:16;22.37;;;9.33;;
42338;SDS011;27993;45.392;10.918;2023-02-28T17:13:48;19.52;;;10.30;;
42338;SDS011;27993;45.392;10.918;2023-02-28T17:16:24;20.40;;;9.93;;
42338;SDS011;27993;45.392;10.918;2023-02-28T17:18:59;20.12;;;9.40;;
42338;SDS011;27993;45.392;10.918;2023-02-28T17:21:32;19.67;;;9.98;;
42338;SDS011;27993;45.392;10.918;2023-02-28T17:24:04;26.42;;;10.00;;
42338;SDS011;27993;45.392;10.918;2023-02-28T17:26:35;24.40;;;9.98;;
42338;SDS011;27993;45.392;10.918;2023-02-28T17:29:09;18.10;;;9.50;;
42338;SDS011;27993;45.392;10.918;2023-02-28T17:31:49;17.02;;;9.02;;
42338;SDS011;27993;45.392;10.918;2023-02-28T17:34:19;31.43;;;10.77;;
42338;SDS011;27993;45.392;10.918;2023-02-28T17:36:50;20.47;;;10.60;;
42338;SDS011;27993;45.392;10.918;2023-02-28T17:39:22;17.58;;;8.73;;
42338;SDS011;27993;45.392;10.918;2023-02-28T17:41:55;21.08;;;9.93;;
42338;SDS011;27993;45.392;10.918;2023-02-28T17:44:26;23.17;;;9.37;;
42338;SDS011;27993;45.392;10.918;2023-02-28T17:46:57;33.88;;;10.20;;
42338;SDS011;27993;45.392;10.918;2023-02-28T17:49:28;22.00;;;10.07;;